createdAt,value
2022-11-10T00:00:14.595Z,564.08
2022-11-10T00:03:15.935Z,491.55
2022-11-10T00:06:03.830Z,571.00
2022-11-10T00:08:49.494Z,722.28
2022-11-10T00:11:35.737Z,565.05
2022-11-10T00:14:39.935Z,921.85
2022-11-10T00:17:26.074Z,974.05
2022-11-10T00:20:12.663Z,672.25
2022-11-10T00:22:58.770Z,653.47
2022-11-10T00:25:44.416Z,575.57
2022-11-10T00:28:34.729Z,499.25
2022-11-10T00:31:20.702Z,651.67
2022-11-10T00:34:14.171Z,578.90
2022-11-10T00:37:00.176Z,549.22
2022-11-10T00:39:46.495Z,793.90
2022-11-10T00:42:32.468Z,661.70
2022-11-10T00:45:18.876Z,499.25
2022-11-10T00:48:05.086Z,556.45
2022-11-10T00:50:51.781Z,549.72
2022-11-10T00:53:37.580Z,701.60
2022-11-10T00:56:24.679Z,615.72
2022-11-10T00:58:58.368Z,480.95
2022-11-10T01:01:44.373Z,606.45
2022-11-10T01:04:31.870Z,585.67
2022-11-10T01:07:18.295Z,499.25
2022-11-10T01:10:07.434Z,705.15
2022-11-10T01:12:54.365Z,869.70
2022-11-10T01:15:41.358Z,721.80
2022-11-10T01:18:27.642Z,673.63
2022-11-10T01:21:15.171Z,638.47
2022-11-10T01:24:01.437Z,805.03
2022-11-10T01:26:47.626Z,1209.18
2022-11-10T01:29:33.775Z,1409.78
2022-11-10T01:32:19.805Z,1292.95
2022-11-10T01:35:06.368Z,861.53
2022-11-10T01:37:53.414Z,1033.10
2022-11-10T01:40:39.506Z,1041.50
2022-11-10T01:43:26.160Z,1053.18
2022-11-10T01:46:14.058Z,751.72
2022-11-10T01:49:02.465Z,589.85
2022-11-10T01:52:12.606Z,717.38
2022-11-10T01:54:58.637Z,464.63
2022-11-10T02:00:31.173Z,498.35
2022-11-10T02:03:59.756Z,745.03
2022-11-10T02:06:47.049Z,465.80
2022-11-10T02:09:33.181Z,496.35
2022-11-10T02:12:37.029Z,496.33
2022-11-10T02:15:23.418Z,586.38
2022-11-10T02:18:09.536Z,527.72
2022-11-10T02:20:55.515Z,364.58
2022-11-10T02:23:45.396Z,432.52
2022-11-10T02:26:32.121Z,384.95
2022-11-10T02:29:17.745Z,357.10
2022-11-10T02:32:03.913Z,341.95
2022-11-10T02:34:50.286Z,332.90
2022-11-10T02:37:36.595Z,368.85
2022-11-10T02:40:22.136Z,403.13
2022-11-10T02:43:12.581Z,357.77
2022-11-10T02:45:58.613Z,364.35
2022-11-10T02:48:44.845Z,329.50
2022-11-10T02:51:30.511Z,350.43
2022-11-10T02:54:16.738Z,318.83
2022-11-10T02:57:03.045Z,322.90
2022-11-10T03:02:35.140Z,334.67
2022-11-10T03:05:21.230Z,328.83
2022-11-10T03:08:07.590Z,304.90
2022-11-10T03:14:00.266Z,291.15
2022-11-10T03:16:48.006Z,314.80
2022-11-10T03:19:34.070Z,305.10
2022-11-10T03:22:20.245Z,284.13
2022-11-10T03:25:07.015Z,294.10
2022-11-10T03:27:53.130Z,272.85
2022-11-10T03:30:39.140Z,266.37
2022-11-10T03:33:25.518Z,279.00
2022-11-10T03:36:11.640Z,290.30
2022-11-10T03:38:57.895Z,288.45
2022-11-10T03:41:43.736Z,291.33
2022-11-10T03:44:29.971Z,271.58
2022-11-10T03:47:15.930Z,288.75
2022-11-10T03:50:01.881Z,288.20
2022-11-10T03:52:48.080Z,281.02
2022-11-10T03:58:20.171Z,267.63
2022-11-10T04:01:06.461Z,283.27
2022-11-10T04:03:52.188Z,270.10
2022-11-10T04:06:57.287Z,271.42
2022-11-10T04:09:43.085Z,312.45
2022-11-10T04:12:48.336Z,290.02
2022-11-10T04:15:43.453Z,301.70
2022-11-10T04:18:30.041Z,296.60
2022-11-10T04:21:15.901Z,311.15
2022-11-10T04:24:02.027Z,276.63
2022-11-10T04:26:48.836Z,259.10
2022-11-10T04:29:35.116Z,257.33
2022-11-10T04:32:20.685Z,236.73
2022-11-10T04:35:07.133Z,209.35
2022-11-10T04:37:52.940Z,197.02
2022-11-10T04:40:39.286Z,201.38
2022-11-10T04:43:25.363Z,208.00
2022-11-10T04:46:30.791Z,185.77
2022-11-10T04:49:16.697Z,191.32
2022-11-10T04:52:03.170Z,180.05
2022-11-10T04:54:48.953Z,188.90
2022-11-10T04:57:35.254Z,199.15
2022-11-10T05:00:21.337Z,215.43
2022-11-10T05:03:09.867Z,192.80
2022-11-10T05:05:55.826Z,204.55
2022-11-10T05:08:43.465Z,193.73
2022-11-10T05:11:29.046Z,183.65
2022-11-10T05:14:15.242Z,199.73
2022-11-10T05:17:01.196Z,201.20
2022-11-10T05:19:47.651Z,214.95
2022-11-10T05:22:33.392Z,187.27
2022-11-10T05:25:19.512Z,189.15
2022-11-10T05:28:07.312Z,184.43
2022-11-10T05:30:56.317Z,184.88
2022-11-10T05:33:42.307Z,181.88
2022-11-10T05:36:28.690Z,183.68
2022-11-10T05:39:17.782Z,187.82
2022-11-10T05:42:04.288Z,177.80
2022-11-10T05:44:50.006Z,188.13
2022-11-10T05:47:39.061Z,194.07
2022-11-10T05:50:25.701Z,189.48
2022-11-10T05:53:12.310Z,212.48
2022-11-10T05:55:58.176Z,199.68
2022-11-10T05:58:44.411Z,194.68
2022-11-10T06:01:30.206Z,237.05
2022-11-10T06:04:16.164Z,203.55
2022-11-10T06:07:02.096Z,224.52
2022-11-10T06:09:48.661Z,228.75
2022-11-10T06:12:37.170Z,232.27
2022-11-10T06:15:23.409Z,230.43
2022-11-10T06:18:09.111Z,203.90
2022-11-10T06:20:55.158Z,192.25
2022-11-10T06:23:41.196Z,191.07
2022-11-10T06:26:27.302Z,183.10
2022-11-10T06:29:13.016Z,211.80
2022-11-10T06:31:59.515Z,219.52
2022-11-10T06:34:45.136Z,190.77
2022-11-10T06:37:31.165Z,238.52
2022-11-10T06:40:17.080Z,250.67
2022-11-10T06:43:03.340Z,244.43
2022-11-10T06:45:49.365Z,240.75
2022-11-10T06:48:35.475Z,216.90
2022-11-10T06:51:21.152Z,186.73
2022-11-10T06:54:07.416Z,190.02
2022-11-10T06:56:52.992Z,203.05
2022-11-10T06:59:39.303Z,197.05
2022-11-10T07:02:24.887Z,199.95
2022-11-10T07:05:10.852Z,193.43
2022-11-10T07:08:01.365Z,203.45
2022-11-10T07:10:53.611Z,184.30
2022-11-10T07:13:40.155Z,198.27
2022-11-10T07:16:26.063Z,191.93
2022-11-10T07:19:12.117Z,192.10
2022-11-10T07:21:58.345Z,215.70
2022-11-10T07:24:43.906Z,189.17
2022-11-10T07:27:32.520Z,209.20
2022-11-10T07:30:18.398Z,212.60
2022-11-10T07:33:17.505Z,163.63
2022-11-10T07:36:04.510Z,146.85
2022-11-10T07:38:50.802Z,124.82
2022-11-10T07:41:36.523Z,139.97
2022-11-10T07:44:22.903Z,145.27
2022-11-10T07:47:08.422Z,137.93
2022-11-10T07:49:54.584Z,125.03
2022-11-10T07:52:40.579Z,136.77
2022-11-10T07:55:26.882Z,146.23
2022-11-10T07:58:15.092Z,161.80
2022-11-10T08:01:01.665Z,155.70
2022-11-10T08:03:47.439Z,163.57
2022-11-10T08:06:36.328Z,139.05
2022-11-10T08:09:22.202Z,152.68
2022-11-10T08:12:08.143Z,144.00
2022-11-10T08:14:54.056Z,151.07
2022-11-10T08:17:40.053Z,129.90
2022-11-10T08:20:26.019Z,128.90
2022-11-10T08:25:59.841Z,153.77
2022-11-10T08:28:47.084Z,179.32
2022-11-10T08:31:34.205Z,181.98
2022-11-10T08:34:21.875Z,180.40
2022-11-10T08:37:08.012Z,200.93
2022-11-10T08:42:40.224Z,206.57
2022-11-10T08:45:27.145Z,201.65
2022-11-10T08:48:15.878Z,179.27
2022-11-10T08:51:02.068Z,176.63
2022-11-10T08:53:48.107Z,125.63
2022-11-10T08:59:20.325Z,130.75
2022-11-10T09:02:06.298Z,118.00
2022-11-10T09:04:53.672Z,121.18
2022-11-10T09:07:47.372Z,99.75
2022-11-10T09:10:36.196Z,107.85
2022-11-10T09:13:27.813Z,94.25
2022-11-10T09:16:15.496Z,104.28
2022-11-10T09:19:01.576Z,100.35
2022-11-10T09:21:47.566Z,92.70
2022-11-10T09:24:33.712Z,79.05
2022-11-10T09:27:22.151Z,75.05
2022-11-10T09:30:13.113Z,73.07
2022-11-10T09:33:03.213Z,74.63
2022-11-10T09:35:49.635Z,77.25
2022-11-10T09:38:35.489Z,76.97
2022-11-10T09:41:22.057Z,73.95
2022-11-10T09:44:33.155Z,76.40
2022-11-10T09:50:46.877Z,78.82
2022-11-10T09:53:48.140Z,79.90
2022-11-10T09:56:38.241Z,76.85
2022-11-10T09:59:28.017Z,79.78
2022-11-10T10:02:34.125Z,78.15
2022-11-10T10:05:41.792Z,62.55
2022-11-10T10:08:55.164Z,75.32
2022-11-10T10:12:03.526Z,72.03
2022-11-10T10:14:58.372Z,65.72
2022-11-10T10:18:00.047Z,63.95
2022-11-10T10:21:04.906Z,69.88
2022-11-10T10:24:09.357Z,73.32
2022-11-10T10:27:00.328Z,80.85
2022-11-10T10:29:49.437Z,69.88
2022-11-10T10:32:37.566Z,68.53
2022-11-10T10:35:26.066Z,70.45
2022-11-10T10:38:35.419Z,68.45
2022-11-10T10:41:30.419Z,76.60
2022-11-10T10:44:19.572Z,79.78
2022-11-10T10:47:05.745Z,71.28
2022-11-10T10:50:35.296Z,67.50
2022-11-10T10:53:25.971Z,66.15
2022-11-10T10:56:22.103Z,60.85
2022-11-10T10:59:21.336Z,57.40
2022-11-10T11:02:25.314Z,62.83
2022-11-10T11:05:17.745Z,52.63
2022-11-10T11:08:03.982Z,50.13
2022-11-10T11:13:36.335Z,53.75
2022-11-10T11:16:22.889Z,53.60
2022-11-10T11:19:09.393Z,55.97
2022-11-10T11:22:41.899Z,49.65
2022-11-10T11:25:38.024Z,45.13
2022-11-10T11:28:50.075Z,44.00
2022-11-10T11:31:57.272Z,43.72
2022-11-10T11:34:48.429Z,46.92
2022-11-10T11:37:51.942Z,49.90
2022-11-10T11:40:46.326Z,49.50
2022-11-10T11:43:56.347Z,47.67
2022-11-10T11:47:20.735Z,53.95
2022-11-10T11:50:16.725Z,51.35
2022-11-10T11:53:23.897Z,55.78
2022-11-10T11:56:22.537Z,46.38
2022-11-10T11:59:21.063Z,49.33
2022-11-10T12:02:52.730Z,49.00
2022-11-10T12:06:00.762Z,45.72
2022-11-10T12:12:12.802Z,42.22
2022-11-10T12:15:20.388Z,43.72
2022-11-10T12:18:25.124Z,46.42
2022-11-10T12:21:29.301Z,43.47
2022-11-10T12:24:42.481Z,43.33
2022-11-10T12:27:40.141Z,47.63
2022-11-10T12:30:26.890Z,49.80
2022-11-10T12:33:45.320Z,40.15
2022-11-10T12:36:32.783Z,51.13
2022-11-10T12:39:25.544Z,44.85
2022-11-10T12:42:18.203Z,45.20
2022-11-10T12:45:17.085Z,49.72
2022-11-10T12:48:04.957Z,47.63
2022-11-10T12:50:59.927Z,42.42
2022-11-10T12:53:48.431Z,40.55
2022-11-10T12:56:39.385Z,40.47
2022-11-10T12:59:32.592Z,44.90
2022-11-10T13:02:40.772Z,42.95
2022-11-10T13:05:38.160Z,48.92
2022-11-10T13:08:41.261Z,48.75
2022-11-10T13:11:32.561Z,44.20
2022-11-10T13:14:27.682Z,48.03
2022-11-10T13:17:26.185Z,49.15
2022-11-10T13:20:51.333Z,43.65
2022-11-10T13:23:38.048Z,39.30
2022-11-10T13:26:42.511Z,35.17
2022-11-10T13:29:36.458Z,29.55
2022-11-10T13:32:30.965Z,29.52
2022-11-10T13:35:29.414Z,27.95
2022-11-10T13:38:37.995Z,19.60
2022-11-10T13:41:32.459Z,22.17
2022-11-10T13:44:42.323Z,19.20
2022-11-10T13:47:46.541Z,19.77
2022-11-10T13:51:03.224Z,17.77
2022-11-10T13:54:10.809Z,22.85
2022-11-10T13:57:27.825Z,24.25
2022-11-10T14:00:14.060Z,23.67
2022-11-10T14:03:01.992Z,28.15
2022-11-10T14:06:09.097Z,24.52
2022-11-10T14:09:14.960Z,21.13
2022-11-10T14:12:21.695Z,28.25
2022-11-10T14:15:15.238Z,20.45
2022-11-10T14:18:01.510Z,24.60
2022-11-10T14:20:53.224Z,29.13
2022-11-10T14:23:51.735Z,24.85
2022-11-10T14:27:22.336Z,24.95
2022-11-10T14:30:26.360Z,29.27
2022-11-10T14:33:16.348Z,38.88
2022-11-10T14:36:09.144Z,23.10
2022-11-10T14:38:55.262Z,24.20
2022-11-10T14:41:49.512Z,28.88
2022-11-10T14:44:35.813Z,26.55
2022-11-10T14:47:29.031Z,37.67
2022-11-10T14:50:26.015Z,35.85
2022-11-10T14:53:22.286Z,31.33
2022-11-10T14:56:17.819Z,33.00
2022-11-10T14:59:10.992Z,27.92
2022-11-10T15:02:00.970Z,23.77
2022-11-10T15:04:51.350Z,28.10
2022-11-10T15:07:38.073Z,31.10
2022-11-10T15:10:26.954Z,34.63
2022-11-10T15:13:13.441Z,29.48
2022-11-10T15:16:21.453Z,43.08
2022-11-10T15:19:27.093Z,38.53
2022-11-10T15:22:31.426Z,39.33
2022-11-10T15:25:21.643Z,53.45
2022-11-10T15:28:14.039Z,60.65
2022-11-10T15:31:07.700Z,65.57
2022-11-10T15:33:57.006Z,60.47
2022-11-10T15:36:44.261Z,65.30
2022-11-10T15:39:33.626Z,48.90
2022-11-10T15:45:09.966Z,72.40
2022-11-10T15:47:56.821Z,58.05
2022-11-10T15:50:47.202Z,52.13
2022-11-10T15:53:42.081Z,66.75
2022-11-10T15:56:28.442Z,65.07
2022-11-10T15:59:15.041Z,91.72
2022-11-10T16:02:02.349Z,118.88
2022-11-10T16:04:52.415Z,133.35
2022-11-10T16:07:40.862Z,107.07
2022-11-10T16:10:28.392Z,87.53
2022-11-10T16:13:22.657Z,145.93
2022-11-10T16:16:13.774Z,327.95
2022-11-10T16:18:59.896Z,211.77
2022-11-10T16:21:45.923Z,88.22
2022-11-10T16:24:32.311Z,56.90
2022-11-10T16:27:20.545Z,51.22
2022-11-10T16:30:13.885Z,70.57
2022-11-10T16:33:00.726Z,306.65
2022-11-10T16:35:50.993Z,219.63
2022-11-10T16:38:36.920Z,269.63
2022-11-10T16:41:24.021Z,176.80
2022-11-10T16:44:15.223Z,201.30
2022-11-10T16:47:01.843Z,190.65
2022-11-10T16:49:49.426Z,593.20
2022-11-10T16:52:36.102Z,245.95
2022-11-10T16:58:08.257Z,417.10
2022-11-10T17:00:58.361Z,418.27
2022-11-10T17:03:47.621Z,394.63
2022-11-10T17:06:36.428Z,398.23
2022-11-10T17:09:26.817Z,357.40
2022-11-10T17:12:13.844Z,346.73
2022-11-10T17:15:02.335Z,315.58
2022-11-10T17:17:51.988Z,228.63
2022-11-10T17:20:40.772Z,243.73
2022-11-10T17:23:27.463Z,244.40
2022-11-10T17:26:16.715Z,229.80
2022-11-10T17:29:02.512Z,245.25
2022-11-10T17:31:50.575Z,242.45
2022-11-10T17:34:36.468Z,224.23
2022-11-10T17:37:25.995Z,187.98
2022-11-10T17:40:32.737Z,181.90
2022-11-10T17:43:19.419Z,195.95
2022-11-10T17:46:05.532Z,226.63
2022-11-10T17:48:54.752Z,295.00
2022-11-10T17:51:40.958Z,291.33
2022-11-10T17:54:27.244Z,275.73
2022-11-10T17:57:13.045Z,288.77
2022-11-10T18:02:51.201Z,270.17
2022-11-10T18:05:41.613Z,237.48
2022-11-10T18:08:27.311Z,216.90
2022-11-10T18:11:16.683Z,229.13
2022-11-10T18:14:02.954Z,285.77
2022-11-10T18:16:49.143Z,256.90
2022-11-10T18:19:34.912Z,220.37
2022-11-10T18:22:21.274Z,230.35
2022-11-10T18:25:11.355Z,195.93
2022-11-10T18:27:57.533Z,189.95
2022-11-10T18:30:44.107Z,177.25
2022-11-10T18:33:30.464Z,186.77
2022-11-10T18:36:16.507Z,178.63
2022-11-10T18:41:52.672Z,186.43
2022-11-10T18:44:39.462Z,324.92
2022-11-10T18:47:25.225Z,305.00
2022-11-10T18:50:11.616Z,270.83
2022-11-10T18:52:57.961Z,303.15
2022-11-10T18:58:38.782Z,223.73
2022-11-10T19:01:25.524Z,224.32
2022-11-10T19:04:12.732Z,309.45
2022-11-10T19:06:59.075Z,232.73
2022-11-10T19:12:32.400Z,322.30
2022-11-10T19:18:05.278Z,494.33
2022-11-10T19:20:51.448Z,446.58
2022-11-10T19:26:25.073Z,364.15
2022-11-10T19:29:11.533Z,315.00
2022-11-10T19:31:57.666Z,338.58
2022-11-10T19:34:43.945Z,290.15
2022-11-10T19:37:34.560Z,258.92
2022-11-10T19:40:24.193Z,284.60
2022-11-10T19:43:10.111Z,249.90
2022-11-10T19:45:56.403Z,264.05
2022-11-10T19:48:43.928Z,221.52
2022-11-10T19:51:30.526Z,188.63
2022-11-10T19:54:16.961Z,194.07
2022-11-10T19:59:49.643Z,173.60
2022-11-10T20:05:22.433Z,182.48
2022-11-10T20:08:11.304Z,202.57
2022-11-10T20:11:18.615Z,166.32
2022-11-10T20:14:10.024Z,166.63
2022-11-10T20:16:55.923Z,159.07
2022-11-10T20:19:42.387Z,179.45
2022-11-10T20:22:31.143Z,183.40
2022-11-10T20:25:18.297Z,160.65
2022-11-10T20:28:07.071Z,133.98
2022-11-10T20:30:56.705Z,122.30
2022-11-10T20:33:43.261Z,131.25
2022-11-10T20:36:32.561Z,408.92
2022-11-10T20:42:04.783Z,139.23
2022-11-10T20:44:50.864Z,162.25
2022-11-10T20:47:37.934Z,201.50
2022-11-10T20:50:24.656Z,182.00
2022-11-10T20:53:11.634Z,168.90
2022-11-10T20:55:58.839Z,180.73
2022-11-10T20:58:45.486Z,167.23
2022-11-10T21:04:19.163Z,169.75
2022-11-10T21:07:07.561Z,207.40
2022-11-10T21:09:54.272Z,199.98
2022-11-10T21:12:52.299Z,182.45
2022-11-10T21:15:40.019Z,181.07
2022-11-10T21:18:35.265Z,193.05
2022-11-10T21:21:24.175Z,178.32
2022-11-10T21:24:10.926Z,202.30
2022-11-10T21:26:58.312Z,252.45
2022-11-10T21:29:44.145Z,193.50
2022-11-10T21:32:30.826Z,234.00
2022-11-10T21:35:17.563Z,216.27
2022-11-10T21:38:05.420Z,364.55
2022-11-10T21:40:51.571Z,326.92
2022-11-10T21:46:27.609Z,226.48
2022-11-10T21:49:14.144Z,247.25
2022-11-10T21:52:00.146Z,159.40
2022-11-10T21:54:46.493Z,222.43
2022-11-10T21:57:32.489Z,192.15
2022-11-10T22:03:05.960Z,147.95
2022-11-10T22:05:52.301Z,172.38
2022-11-10T22:08:39.708Z,191.80
2022-11-10T22:11:44.846Z,195.30
2022-11-10T22:14:49.472Z,169.18
2022-11-10T22:17:54.523Z,139.57
2022-11-10T22:20:40.589Z,143.55
2022-11-10T22:23:45.418Z,145.00
2022-11-10T22:26:31.452Z,145.23
2022-11-10T22:29:17.823Z,140.85
2022-11-10T22:32:03.913Z,153.43
2022-11-10T22:34:50.151Z,190.43
2022-11-10T22:37:36.068Z,216.23
2022-11-10T22:40:40.939Z,159.00
2022-11-10T22:43:45.287Z,146.75
2022-11-10T22:46:34.499Z,208.02
2022-11-10T22:49:22.448Z,172.10
2022-11-10T22:52:08.750Z,172.82
2022-11-10T22:54:54.559Z,174.18
2022-11-10T22:57:40.871Z,201.35
2022-11-10T23:00:26.951Z,192.82
2022-11-10T23:03:14.353Z,189.02
2022-11-10T23:06:00.479Z,195.23
2022-11-10T23:08:46.849Z,221.55
2022-11-10T23:11:33.711Z,192.70
2022-11-10T23:14:20.148Z,173.27
2022-11-10T23:17:05.663Z,187.70
2022-11-10T23:19:51.908Z,203.85
2022-11-10T23:22:40.615Z,192.90
2022-11-10T23:25:29.591Z,168.60
2022-11-10T23:28:15.560Z,164.15
2022-11-10T23:31:06.760Z,150.50
2022-11-10T23:33:58.032Z,143.23
2022-11-10T23:36:44.379Z,135.85
2022-11-10T23:39:30.591Z,129.00
2022-11-10T23:42:16.518Z,189.23
2022-11-10T23:45:02.469Z,171.18
2022-11-10T23:47:51.300Z,220.23
2022-11-10T23:50:36.814Z,259.42
2022-11-10T23:53:23.351Z,288.83
2022-11-10T23:56:13.769Z,325.17
2022-11-10T23:59:00.171Z,414.33
